Hauptseite
METAR-TAF:

METAR-TAF

Flughäfen :

Fliegerhorst Lechfeld

Lechfeld, Deutschland

Breite: 48-11N, Länge: 010-52E, Höhe: 555 m

Beobachtung

Neuester Wetterbericht von vor 1 Stunde und 1 Minuten, um 13:20 UTC
Wind 12 kt aus Südwest
Temperatur 11°C
Luftfeuchtigkeit 71%
Luftdruck 998 hPa
Sichtweite 10 km oder mehr
Leicht bewölkt in der Höhe von 3500 ft
Durchbrochene Bewölkung in der Höhe von 5000 ft
Leichtregen,

METAR: ETSL 221320Z 22012KT 9999 -RA FEW035 BKN050 11/06 Q0998 BLU BLU

Zeit: 15:21 (14:21 UTC)

Prognose

Neuester Wetterbericht von vor 2 Stunden und 54 Minuten, um 11:27 UTC
Gültige Prognose vom 22 um 12 UTC bis 22 um 21 UTC
Wind 12 kt aus Süd/Südwest
Sichtweite: 9000 m
Leicht bewölkt in der Höhe von 2000 ft
Durchbrochene Bewölkung in der Höhe von 7000 ft
Leichtregen,

TAF: ETSL 221127Z 2212/2221 20012KT 9000 -RA FEW020 BKN070

Wetterbeobachtungen und Prognosen von mehr als 4000 Flughäfen (METAR und TAF Bericht).

Die verfügbaren Stationen werden durch gelbe und rote Markierungen auf der Karte dargestellt.

Führen Sie die Maus auf sie, um den Namen der Station zu sehen.

Darauf klicken, um die Beobachtung von Wetterbeobachtungen und Prognosen zu sehen.

Um die Karte zu ändern : klicken Sie auf den grünen Tasten mit einem schwarzen Kreuz Zum Vergrößern, auf den grünen Button mit einem Gedankenstrich zu verkleinern, oder auf die grünen Pfeile für benachbarte Karten.


METAR-TAF: